sensor_id;sensor_type;location;lat;lon;timestamp;P1;durP1;ratioP1;P2;durP2;ratioP2
74974;SDS011;68459;50.836;19.138;2023-12-20T00:02:24;7.53;;;4.20;;
74974;SDS011;68459;50.836;19.138;2023-12-20T00:05:28;7.80;;;3.83;;
74974;SDS011;68459;50.836;19.138;2023-12-20T00:08:33;7.80;;;3.63;;
74974;SDS011;68459;50.836;19.138;2023-12-20T00:11:37;7.15;;;3.70;;
74974;SDS011;68459;50.836;19.138;2023-12-20T00:14:43;7.28;;;4.00;;
74974;SDS011;68459;50.836;19.138;2023-12-20T00:17:49;7.43;;;3.70;;
74974;SDS011;68459;50.836;19.138;2023-12-20T00:20:52;8.30;;;4.15;;
74974;SDS011;68459;50.836;19.138;2023-12-20T00:23:56;5.37;;;3.37;;
74974;SDS011;68459;50.836;19.138;2023-12-20T00:27:00;9.05;;;4.60;;
74974;SDS011;68459;50.836;19.138;2023-12-20T00:30:05;7.22;;;3.80;;
74974;SDS011;68459;50.836;19.138;2023-12-20T00:33:11;8.00;;;4.60;;
74974;SDS011;68459;50.836;19.138;2023-12-20T00:36:16;7.25;;;3.63;;
74974;SDS011;68459;50.836;19.138;2023-12-20T00:39:20;8.18;;;4.20;;
74974;SDS011;68459;50.836;19.138;2023-12-20T00:42:24;5.90;;;3.33;;
74974;SDS011;68459;50.836;19.138;2023-12-20T00:45:27;7.53;;;4.25;;
74974;SDS011;68459;50.836;19.138;2023-12-20T00:48:33;7.80;;;4.55;;
74974;SDS011;68459;50.836;19.138;2023-12-20T00:51:37;8.20;;;4.25;;
74974;SDS011;68459;50.836;19.138;2023-12-20T00:54:41;8.53;;;4.60;;
74974;SDS011;68459;50.836;19.138;2023-12-20T00:57:45;8.20;;;4.05;;
74974;SDS011;68459;50.836;19.138;2023-12-20T01:00:50;6.05;;;3.75;;
74974;SDS011;68459;50.836;19.138;2023-12-20T01:03:55;8.47;;;4.50;;
74974;SDS011;68459;50.836;19.138;2023-12-20T01:06:59;7.32;;;4.13;;
74974;SDS011;68459;50.836;19.138;2023-12-20T01:10:03;10.18;;;4.53;;
74974;SDS011;68459;50.836;19.138;2023-12-20T01:13:08;7.22;;;4.15;;
74974;SDS011;68459;50.836;19.138;2023-12-20T01:16:12;7.30;;;4.47;;
74974;SDS011;68459;50.836;19.138;2023-12-20T01:19:17;8.13;;;4.28;;
74974;SDS011;68459;50.836;19.138;2023-12-20T01:22:21;6.50;;;4.18;;
74974;SDS011;68459;50.836;19.138;2023-12-20T01:25:26;7.53;;;3.83;;
74974;SDS011;68459;50.836;19.138;2023-12-20T01:28:30;6.40;;;4.13;;
74974;SDS011;68459;50.836;19.138;2023-12-20T01:31:34;7.75;;;4.18;;
74974;SDS011;68459;50.836;19.138;2023-12-20T01:34:40;7.63;;;4.83;;
74974;SDS011;68459;50.836;19.138;2023-12-20T01:37:44;9.90;;;4.80;;
74974;SDS011;68459;50.836;19.138;2023-12-20T01:40:48;8.45;;;4.53;;
74974;SDS011;68459;50.836;19.138;2023-12-20T01:43:52;6.53;;;4.20;;
74974;SDS011;68459;50.836;19.138;2023-12-20T01:46:56;6.55;;;4.05;;
74974;SDS011;68459;50.836;19.138;2023-12-20T01:50:02;9.25;;;4.38;;
74974;SDS011;68459;50.836;19.138;2023-12-20T01:53:10;10.15;;;4.72;;
74974;SDS011;68459;50.836;19.138;2023-12-20T01:56:16;7.83;;;4.20;;
74974;SDS011;68459;50.836;19.138;2023-12-20T01:59:20;9.80;;;4.90;;
74974;SDS011;68459;50.836;19.138;2023-12-20T02:02:25;7.55;;;4.35;;
74974;SDS011;68459;50.836;19.138;2023-12-20T02:05:32;8.53;;;4.53;;
74974;SDS011;68459;50.836;19.138;2023-12-20T02:08:38;10.43;;;5.22;;
74974;SDS011;68459;50.836;19.138;2023-12-20T02:11:42;6.68;;;4.35;;
74974;SDS011;68459;50.836;19.138;2023-12-20T02:14:47;9.52;;;5.80;;
74974;SDS011;68459;50.836;19.138;2023-12-20T02:17:51;10.23;;;5.18;;
74974;SDS011;68459;50.836;19.138;2023-12-20T02:20:57;11.88;;;6.10;;
74974;SDS011;68459;50.836;19.138;2023-12-20T02:24:02;7.85;;;4.68;;
74974;SDS011;68459;50.836;19.138;2023-12-20T02:27:07;8.70;;;5.33;;
74974;SDS011;68459;50.836;19.138;2023-12-20T02:30:11;11.32;;;5.93;;
74974;SDS011;68459;50.836;19.138;2023-12-20T02:33:16;10.52;;;5.15;;
74974;SDS011;68459;50.836;19.138;2023-12-20T02:36:20;10.60;;;5.80;;
74974;SDS011;68459;50.836;19.138;2023-12-20T02:39:25;9.40;;;5.65;;
74974;SDS011;68459;50.836;19.138;2023-12-20T02:42:29;11.55;;;6.07;;
74974;SDS011;68459;50.836;19.138;2023-12-20T02:45:33;9.82;;;5.85;;
74974;SDS011;68459;50.836;19.138;2023-12-20T02:48:36;10.35;;;5.10;;
74974;SDS011;68459;50.836;19.138;2023-12-20T02:51:41;12.02;;;5.57;;
74974;SDS011;68459;50.836;19.138;2023-12-20T02:54:46;10.32;;;4.80;;
74974;SDS011;68459;50.836;19.138;2023-12-20T02:57:51;7.10;;;4.03;;
74974;SDS011;68459;50.836;19.138;2023-12-20T03:00:54;7.40;;;4.82;;
74974;SDS011;68459;50.836;19.138;2023-12-20T03:03:59;9.10;;;5.13;;
74974;SDS011;68459;50.836;19.138;2023-12-20T03:07:03;9.13;;;5.20;;
74974;SDS011;68459;50.836;19.138;2023-12-20T03:10:09;8.77;;;5.18;;
74974;SDS011;68459;50.836;19.138;2023-12-20T03:13:24;6.60;;;4.43;;
74974;SDS011;68459;50.836;19.138;2023-12-20T03:16:29;9.07;;;5.20;;
74974;SDS011;68459;50.836;19.138;2023-12-20T03:19:35;6.57;;;4.32;;
74974;SDS011;68459;50.836;19.138;2023-12-20T03:22:39;10.15;;;5.10;;
74974;SDS011;68459;50.836;19.138;2023-12-20T03:25:44;8.75;;;4.80;;
74974;SDS011;68459;50.836;19.138;2023-12-20T03:28:48;6.87;;;4.30;;
74974;SDS011;68459;50.836;19.138;2023-12-20T03:31:52;9.55;;;4.80;;
74974;SDS011;68459;50.836;19.138;2023-12-20T03:34:56;9.77;;;4.93;;
74974;SDS011;68459;50.836;19.138;2023-12-20T03:38:00;11.50;;;5.23;;
74974;SDS011;68459;50.836;19.138;2023-12-20T03:41:06;9.85;;;4.75;;
74974;SDS011;68459;50.836;19.138;2023-12-20T03:44:10;10.82;;;5.05;;
74974;SDS011;68459;50.836;19.138;2023-12-20T03:47:14;7.15;;;4.80;;
74974;SDS011;68459;50.836;19.138;2023-12-20T03:50:18;6.22;;;4.28;;
74974;SDS011;68459;50.836;19.138;2023-12-20T03:53:25;8.85;;;4.75;;
74974;SDS011;68459;50.836;19.138;2023-12-20T03:56:30;9.13;;;4.47;;
74974;SDS011;68459;50.836;19.138;2023-12-20T03:59:36;8.40;;;4.87;;
74974;SDS011;68459;50.836;19.138;2023-12-20T04:02:40;9.25;;;4.88;;
74974;SDS011;68459;50.836;19.138;2023-12-20T04:05:45;6.97;;;4.10;;
74974;SDS011;68459;50.836;19.138;2023-12-20T04:08:49;9.30;;;4.87;;
74974;SDS011;68459;50.836;19.138;2023-12-20T04:11:56;6.93;;;3.85;;
74974;SDS011;68459;50.836;19.138;2023-12-20T04:15:00;8.73;;;5.00;;
74974;SDS011;68459;50.836;19.138;2023-12-20T04:18:05;7.88;;;4.75;;
74974;SDS011;68459;50.836;19.138;2023-12-20T04:21:09;7.32;;;4.03;;
74974;SDS011;68459;50.836;19.138;2023-12-20T04:24:13;7.80;;;4.32;;
74974;SDS011;68459;50.836;19.138;2023-12-20T04:27:18;7.32;;;3.90;;
74974;SDS011;68459;50.836;19.138;2023-12-20T04:30:22;8.00;;;4.70;;
74974;SDS011;68459;50.836;19.138;2023-12-20T04:33:26;9.68;;;4.47;;
74974;SDS011;68459;50.836;19.138;2023-12-20T04:36:30;7.68;;;4.30;;
74974;SDS011;68459;50.836;19.138;2023-12-20T04:39:34;7.73;;;4.33;;
74974;SDS011;68459;50.836;19.138;2023-12-20T04:42:40;6.93;;;4.20;;
74974;SDS011;68459;50.836;19.138;2023-12-20T04:45:44;5.32;;;4.10;;
74974;SDS011;68459;50.836;19.138;2023-12-20T04:48:48;6.15;;;4.05;;
74974;SDS011;68459;50.836;19.138;2023-12-20T04:51:52;7.25;;;4.05;;
74974;SDS011;68459;50.836;19.138;2023-12-20T04:54:56;7.88;;;4.50;;
74974;SDS011;68459;50.836;19.138;2023-12-20T04:58:03;8.30;;;4.45;;
74974;SDS011;68459;50.836;19.138;2023-12-20T05:01:08;5.77;;;3.57;;
74974;SDS011;68459;50.836;19.138;2023-12-20T05:04:12;6.28;;;4.30;;
74974;SDS011;68459;50.836;19.138;2023-12-20T05:07:16;6.38;;;4.60;;
74974;SDS011;68459;50.836;19.138;2023-12-20T05:10:20;5.63;;;3.97;;
74974;SDS011;68459;50.836;19.138;2023-12-20T05:13:26;6.30;;;3.72;;
74974;SDS011;68459;50.836;19.138;2023-12-20T05:16:43;5.95;;;3.78;;
74974;SDS011;68459;50.836;19.138;2023-12-20T05:19:47;6.05;;;4.25;;
74974;SDS011;68459;50.836;19.138;2023-12-20T05:22:51;7.38;;;4.15;;
74974;SDS011;68459;50.836;19.138;2023-12-20T05:25:55;6.05;;;3.63;;
74974;SDS011;68459;50.836;19.138;2023-12-20T05:29:00;4.68;;;3.45;;
74974;SDS011;68459;50.836;19.138;2023-12-20T05:32:05;6.47;;;3.43;;
74974;SDS011;68459;50.836;19.138;2023-12-20T05:35:09;4.63;;;3.50;;
74974;SDS011;68459;50.836;19.138;2023-12-20T05:38:13;5.15;;;3.05;;
74974;SDS011;68459;50.836;19.138;2023-12-20T05:41:17;6.70;;;3.37;;
74974;SDS011;68459;50.836;19.138;2023-12-20T05:44:22;3.97;;;2.30;;
74974;SDS011;68459;50.836;19.138;2023-12-20T05:47:26;5.00;;;3.45;;
74974;SDS011;68459;50.836;19.138;2023-12-20T05:50:30;5.00;;;3.40;;
74974;SDS011;68459;50.836;19.138;2023-12-20T05:53:33;6.88;;;2.85;;
74974;SDS011;68459;50.836;19.138;2023-12-20T05:56:37;5.45;;;3.35;;
74974;SDS011;68459;50.836;19.138;2023-12-20T05:59:43;5.43;;;3.10;;
74974;SDS011;68459;50.836;19.138;2023-12-20T06:02:47;5.27;;;2.67;;
74974;SDS011;68459;50.836;19.138;2023-12-20T06:05:51;3.67;;;2.40;;
74974;SDS011;68459;50.836;19.138;2023-12-20T06:09:12;5.40;;;3.17;;
74974;SDS011;68459;50.836;19.138;2023-12-20T06:12:17;5.80;;;3.40;;
74974;SDS011;68459;50.836;19.138;2023-12-20T06:15:23;6.05;;;3.15;;
74974;SDS011;68459;50.836;19.138;2023-12-20T06:18:26;6.53;;;3.22;;
74974;SDS011;68459;50.836;19.138;2023-12-20T06:21:30;5.60;;;3.00;;
74974;SDS011;68459;50.836;19.138;2023-12-20T06:24:34;6.07;;;3.40;;
74974;SDS011;68459;50.836;19.138;2023-12-20T06:27:38;4.43;;;2.75;;
74974;SDS011;68459;50.836;19.138;2023-12-20T06:30:44;4.15;;;2.80;;
74974;SDS011;68459;50.836;19.138;2023-12-20T06:33:49;5.47;;;3.10;;
74974;SDS011;68459;50.836;19.138;2023-12-20T06:36:59;4.75;;;2.75;;
74974;SDS011;68459;50.836;19.138;2023-12-20T06:40:04;4.88;;;3.25;;
74974;SDS011;68459;50.836;19.138;2023-12-20T06:43:19;5.70;;;2.63;;
74974;SDS011;68459;50.836;19.138;2023-12-20T06:46:44;4.40;;;2.72;;
74974;SDS011;68459;50.836;19.138;2023-12-20T06:49:48;5.53;;;2.72;;
74974;SDS011;68459;50.836;19.138;2023-12-20T06:52:52;4.65;;;2.70;;
74974;SDS011;68459;50.836;19.138;2023-12-20T06:55:56;4.45;;;2.70;;
74974;SDS011;68459;50.836;19.138;2023-12-20T06:59:00;5.03;;;3.30;;
74974;SDS011;68459;50.836;19.138;2023-12-20T07:02:05;5.40;;;3.28;;
74974;SDS011;68459;50.836;19.138;2023-12-20T07:05:16;4.63;;;3.20;;
74974;SDS011;68459;50.836;19.138;2023-12-20T07:08:22;5.78;;;2.72;;
74974;SDS011;68459;50.836;19.138;2023-12-20T07:11:26;6.57;;;3.17;;
74974;SDS011;68459;50.836;19.138;2023-12-20T07:14:29;5.07;;;3.17;;
74974;SDS011;68459;50.836;19.138;2023-12-20T07:17:34;4.82;;;3.10;;
74974;SDS011;68459;50.836;19.138;2023-12-20T07:20:38;4.32;;;3.05;;
74974;SDS011;68459;50.836;19.138;2023-12-20T07:23:42;5.45;;;2.80;;
74974;SDS011;68459;50.836;19.138;2023-12-20T07:26:46;5.18;;;3.08;;
74974;SDS011;68459;50.836;19.138;2023-12-20T07:29:50;3.53;;;2.13;;
74974;SDS011;68459;50.836;19.138;2023-12-20T07:32:55;2.78;;;1.67;;
74974;SDS011;68459;50.836;19.138;2023-12-20T07:35:59;4.80;;;2.47;;
74974;SDS011;68459;50.836;19.138;2023-12-20T07:39:04;3.72;;;2.28;;
74974;SDS011;68459;50.836;19.138;2023-12-20T07:42:08;3.78;;;2.00;;
74974;SDS011;68459;50.836;19.138;2023-12-20T07:45:12;3.37;;;1.97;;
74974;SDS011;68459;50.836;19.138;2023-12-20T07:48:18;3.30;;;2.05;;
74974;SDS011;68459;50.836;19.138;2023-12-20T07:51:22;2.85;;;1.52;;
74974;SDS011;68459;50.836;19.138;2023-12-20T07:54:26;1.88;;;1.10;;
74974;SDS011;68459;50.836;19.138;2023-12-20T07:57:29;3.13;;;1.10;;
74974;SDS011;68459;50.836;19.138;2023-12-20T08:00:33;2.00;;;1.10;;
74974;SDS011;68459;50.836;19.138;2023-12-20T08:03:38;3.35;;;1.13;;
74974;SDS011;68459;50.836;19.138;2023-12-20T08:06:43;3.70;;;1.53;;
74974;SDS011;68459;50.836;19.138;2023-12-20T08:09:46;2.55;;;1.40;;
74974;SDS011;68459;50.836;19.138;2023-12-20T08:12:50;4.82;;;1.77;;
74974;SDS011;68459;50.836;19.138;2023-12-20T08:15:54;3.80;;;2.07;;
74974;SDS011;68459;50.836;19.138;2023-12-20T08:19:00;3.28;;;1.70;;
74974;SDS011;68459;50.836;19.138;2023-12-20T08:22:04;5.35;;;2.08;;
74974;SDS011;68459;50.836;19.138;2023-12-20T08:25:09;2.72;;;1.42;;
74974;SDS011;68459;50.836;19.138;2023-12-20T08:28:13;4.68;;;2.00;;
74974;SDS011;68459;50.836;19.138;2023-12-20T08:31:17;4.60;;;1.90;;
74974;SDS011;68459;50.836;19.138;2023-12-20T08:34:24;4.32;;;2.22;;
74974;SDS011;68459;50.836;19.138;2023-12-20T08:37:29;4.37;;;2.03;;
74974;SDS011;68459;50.836;19.138;2023-12-20T08:40:33;3.53;;;1.83;;
74974;SDS011;68459;50.836;19.138;2023-12-20T08:43:37;3.97;;;1.75;;
74974;SDS011;68459;50.836;19.138;2023-12-20T08:46:42;3.33;;;1.33;;
74974;SDS011;68459;50.836;19.138;2023-12-20T08:49:48;2.90;;;1.73;;
74974;SDS011;68459;50.836;19.138;2023-12-20T08:52:52;3.80;;;2.00;;
74974;SDS011;68459;50.836;19.138;2023-12-20T08:55:56;4.20;;;1.95;;
74974;SDS011;68459;50.836;19.138;2023-12-20T08:59:03;4.70;;;2.42;;
74974;SDS011;68459;50.836;19.138;2023-12-20T09:02:06;3.20;;;1.80;;
74974;SDS011;68459;50.836;19.138;2023-12-20T09:05:12;4.72;;;2.30;;
74974;SDS011;68459;50.836;19.138;2023-12-20T09:08:16;3.77;;;2.30;;
74974;SDS011;68459;50.836;19.138;2023-12-20T09:11:20;3.72;;;2.20;;
74974;SDS011;68459;50.836;19.138;2023-12-20T09:14:24;3.50;;;1.85;;
74974;SDS011;68459;50.836;19.138;2023-12-20T09:17:28;3.40;;;2.07;;
74974;SDS011;68459;50.836;19.138;2023-12-20T09:20:34;4.97;;;2.45;;
74974;SDS011;68459;50.836;19.138;2023-12-20T09:23:42;3.67;;;2.03;;
74974;SDS011;68459;50.836;19.138;2023-12-20T09:26:46;4.35;;;1.98;;
74974;SDS011;68459;50.836;19.138;2023-12-20T09:29:50;3.97;;;1.85;;
74974;SDS011;68459;50.836;19.138;2023-12-20T09:32:55;3.17;;;1.65;;
74974;SDS011;68459;50.836;19.138;2023-12-20T09:36:01;4.45;;;1.60;;
74974;SDS011;68459;50.836;19.138;2023-12-20T09:39:05;4.77;;;2.03;;
74974;SDS011;68459;50.836;19.138;2023-12-20T09:42:09;3.50;;;1.65;;
74974;SDS011;68459;50.836;19.138;2023-12-20T09:45:15;3.20;;;1.70;;
74974;SDS011;68459;50.836;19.138;2023-12-20T09:48:24;3.07;;;1.50;;
74974;SDS011;68459;50.836;19.138;2023-12-20T09:51:31;3.60;;;1.77;;
74974;SDS011;68459;50.836;19.138;2023-12-20T09:54:36;3.13;;;2.15;;
74974;SDS011;68459;50.836;19.138;2023-12-20T09:57:41;3.08;;;1.85;;
74974;SDS011;68459;50.836;19.138;2023-12-20T10:00:45;3.42;;;1.77;;
74974;SDS011;68459;50.836;19.138;2023-12-20T10:03:50;3.17;;;1.58;;
74974;SDS011;68459;50.836;19.138;2023-12-20T10:07:01;3.25;;;1.80;;
74974;SDS011;68459;50.836;19.138;2023-12-20T10:10:08;2.87;;;1.70;;
74974;SDS011;68459;50.836;19.138;2023-12-20T10:13:14;2.72;;;1.52;;
74974;SDS011;68459;50.836;19.138;2023-12-20T10:16:20;2.17;;;1.27;;
74974;SDS011;68459;50.836;19.138;2023-12-20T10:19:28;2.40;;;1.37;;
74974;SDS011;68459;50.836;19.138;2023-12-20T10:22:34;3.47;;;1.45;;
74974;SDS011;68459;50.836;19.138;2023-12-20T10:25:38;3.40;;;2.30;;
74974;SDS011;68459;50.836;19.138;2023-12-20T10:28:44;4.10;;;2.20;;
74974;SDS011;68459;50.836;19.138;2023-12-20T10:31:47;3.67;;;1.77;;
74974;SDS011;68459;50.836;19.138;2023-12-20T10:34:52;3.30;;;1.38;;
74974;SDS011;68459;50.836;19.138;2023-12-20T10:37:58;4.05;;;1.70;;
74974;SDS011;68459;50.836;19.138;2023-12-20T10:41:08;2.43;;;1.10;;
74974;SDS011;68459;50.836;19.138;2023-12-20T10:44:13;2.92;;;1.30;;
74974;SDS011;68459;50.836;19.138;2023-12-20T10:47:18;2.10;;;1.10;;
74974;SDS011;68459;50.836;19.138;2023-12-20T10:50:22;2.70;;;1.50;;
74974;SDS011;68459;50.836;19.138;2023-12-20T10:53:28;2.40;;;1.15;;
74974;SDS011;68459;50.836;19.138;2023-12-20T10:56:32;2.30;;;1.30;;
74974;SDS011;68459;50.836;19.138;2023-12-20T10:59:38;2.85;;;1.13;;
74974;SDS011;68459;50.836;19.138;2023-12-20T11:02:43;2.22;;;1.50;;
74974;SDS011;68459;50.836;19.138;2023-12-20T11:05:49;3.67;;;1.50;;
74974;SDS011;68459;50.836;19.138;2023-12-20T11:09:06;2.80;;;1.38;;
74974;SDS011;68459;50.836;19.138;2023-12-20T11:12:18;1.67;;;1.03;;
74974;SDS011;68459;50.836;19.138;2023-12-20T11:15:31;2.97;;;1.30;;
74974;SDS011;68459;50.836;19.138;2023-12-20T11:18:35;2.33;;;1.48;;
74974;SDS011;68459;50.836;19.138;2023-12-20T11:21:39;2.27;;;1.33;;
74974;SDS011;68459;50.836;19.138;2023-12-20T11:24:45;2.83;;;1.20;;
74974;SDS011;68459;50.836;19.138;2023-12-20T11:28:09;1.90;;;1.20;;
74974;SDS011;68459;50.836;19.138;2023-12-20T11:31:14;3.53;;;1.30;;
74974;SDS011;68459;50.836;19.138;2023-12-20T11:34:19;2.75;;;1.40;;
74974;SDS011;68459;50.836;19.138;2023-12-20T11:37:28;3.78;;;1.50;;
74974;SDS011;68459;50.836;19.138;2023-12-20T11:40:35;2.88;;;1.20;;
74974;SDS011;68459;50.836;19.138;2023-12-20T11:43:40;2.97;;;1.43;;
74974;SDS011;68459;50.836;19.138;2023-12-20T11:46:44;3.70;;;1.08;;
74974;SDS011;68459;50.836;19.138;2023-12-20T11:49:48;2.47;;;1.17;;
74974;SDS011;68459;50.836;19.138;2023-12-20T11:52:53;2.53;;;1.00;;
74974;SDS011;68459;50.836;19.138;2023-12-20T11:55:59;2.10;;;1.10;;
74974;SDS011;68459;50.836;19.138;2023-12-20T11:59:04;2.65;;;0.93;;
74974;SDS011;68459;50.836;19.138;2023-12-20T12:02:24;3.17;;;1.20;;
74974;SDS011;68459;50.836;19.138;2023-12-20T12:05:27;3.15;;;1.20;;
74974;SDS011;68459;50.836;19.138;2023-12-20T12:08:32;2.63;;;1.10;;
74974;SDS011;68459;50.836;19.138;2023-12-20T12:11:37;4.10;;;1.30;;
74974;SDS011;68459;50.836;19.138;2023-12-20T12:14:41;2.60;;;0.97;;
74974;SDS011;68459;50.836;19.138;2023-12-20T12:17:52;3.28;;;1.42;;
74974;SDS011;68459;50.836;19.138;2023-12-20T12:21:00;2.55;;;1.30;;
74974;SDS011;68459;50.836;19.138;2023-12-20T12:24:14;1.80;;;0.93;;
74974;SDS011;68459;50.836;19.138;2023-12-20T12:27:19;3.45;;;1.38;;
74974;SDS011;68459;50.836;19.138;2023-12-20T12:30:23;3.22;;;1.13;;
74974;SDS011;68459;50.836;19.138;2023-12-20T12:33:34;2.83;;;1.27;;
74974;SDS011;68459;50.836;19.138;2023-12-20T12:36:37;2.50;;;1.10;;
74974;SDS011;68459;50.836;19.138;2023-12-20T12:39:43;3.63;;;1.42;;
74974;SDS011;68459;50.836;19.138;2023-12-20T12:42:48;3.53;;;1.67;;
74974;SDS011;68459;50.836;19.138;2023-12-20T12:45:52;3.90;;;1.37;;
74974;SDS011;68459;50.836;19.138;2023-12-20T12:48:57;3.05;;;1.48;;
74974;SDS011;68459;50.836;19.138;2023-12-20T12:52:02;3.00;;;1.42;;
74974;SDS011;68459;50.836;19.138;2023-12-20T12:55:06;3.83;;;1.77;;
74974;SDS011;68459;50.836;19.138;2023-12-20T12:58:13;3.10;;;1.42;;
74974;SDS011;68459;50.836;19.138;2023-12-20T13:01:16;3.92;;;1.35;;
74974;SDS011;68459;50.836;19.138;2023-12-20T13:04:21;4.70;;;1.45;;
74974;SDS011;68459;50.836;19.138;2023-12-20T13:07:25;2.53;;;1.15;;
74974;SDS011;68459;50.836;19.138;2023-12-20T13:10:30;2.70;;;0.70;;
74974;SDS011;68459;50.836;19.138;2023-12-20T13:13:35;2.50;;;1.20;;
74974;SDS011;68459;50.836;19.138;2023-12-20T13:16:40;4.57;;;1.50;;
74974;SDS011;68459;50.836;19.138;2023-12-20T13:19:43;2.30;;;1.10;;
74974;SDS011;68459;50.836;19.138;2023-12-20T13:22:48;5.95;;;1.30;;
74974;SDS011;68459;50.836;19.138;2023-12-20T13:25:52;3.00;;;1.20;;
74974;SDS011;68459;50.836;19.138;2023-12-20T13:28:57;3.08;;;1.20;;
74974;SDS011;68459;50.836;19.138;2023-12-20T13:32:01;3.00;;;1.10;;
74974;SDS011;68459;50.836;19.138;2023-12-20T13:35:06;1.88;;;0.98;;
74974;SDS011;68459;50.836;19.138;2023-12-20T13:38:11;1.88;;;0.77;;
74974;SDS011;68459;50.836;19.138;2023-12-20T13:41:17;2.95;;;1.05;;
74974;SDS011;68459;50.836;19.138;2023-12-20T13:44:22;3.78;;;1.10;;
74974;SDS011;68459;50.836;19.138;2023-12-20T13:47:26;2.77;;;0.80;;
74974;SDS011;68459;50.836;19.138;2023-12-20T13:50:31;2.70;;;1.10;;
74974;SDS011;68459;50.836;19.138;2023-12-20T13:53:35;1.83;;;1.00;;
74974;SDS011;68459;50.836;19.138;2023-12-20T13:56:40;8.17;;;1.70;;
74974;SDS011;68459;50.836;19.138;2023-12-20T14:00:05;2.58;;;1.27;;
74974;SDS011;68459;50.836;19.138;2023-12-20T14:03:16;3.22;;;1.00;;
74974;SDS011;68459;50.836;19.138;2023-12-20T14:06:21;5.25;;;1.27;;
74974;SDS011;68459;50.836;19.138;2023-12-20T14:09:25;4.78;;;1.33;;
74974;SDS011;68459;50.836;19.138;2023-12-20T14:12:29;2.72;;;1.20;;
74974;SDS011;68459;50.836;19.138;2023-12-20T14:15:35;5.80;;;1.17;;
74974;SDS011;68459;50.836;19.138;2023-12-20T14:18:40;2.30;;;1.03;;
74974;SDS011;68459;50.836;19.138;2023-12-20T14:21:45;2.90;;;1.00;;
74974;SDS011;68459;50.836;19.138;2023-12-20T14:24:49;2.72;;;1.35;;
74974;SDS011;68459;50.836;19.138;2023-12-20T14:27:53;3.07;;;1.27;;
74974;SDS011;68459;50.836;19.138;2023-12-20T14:30:58;3.33;;;1.50;;
74974;SDS011;68459;50.836;19.138;2023-12-20T14:34:02;4.70;;;1.70;;
74974;SDS011;68459;50.836;19.138;2023-12-20T14:37:07;2.13;;;0.85;;
74974;SDS011;68459;50.836;19.138;2023-12-20T14:40:11;2.90;;;1.73;;
74974;SDS011;68459;50.836;19.138;2023-12-20T14:43:18;4.53;;;2.33;;
74974;SDS011;68459;50.836;19.138;2023-12-20T14:46:25;8.68;;;3.40;;
74974;SDS011;68459;50.836;19.138;2023-12-20T14:49:30;5.40;;;2.50;;
74974;SDS011;68459;50.836;19.138;2023-12-20T14:52:34;6.65;;;2.63;;
74974;SDS011;68459;50.836;19.138;2023-12-20T14:55:39;3.25;;;1.58;;
74974;SDS011;68459;50.836;19.138;2023-12-20T14:58:43;5.53;;;2.33;;
74974;SDS011;68459;50.836;19.138;2023-12-20T15:01:48;5.13;;;2.72;;
74974;SDS011;68459;50.836;19.138;2023-12-20T15:04:53;6.63;;;2.53;;
74974;SDS011;68459;50.836;19.138;2023-12-20T15:07:57;8.77;;;2.60;;
74974;SDS011;68459;50.836;19.138;2023-12-20T15:11:01;9.68;;;2.53;;
74974;SDS011;68459;50.836;19.138;2023-12-20T15:14:06;6.80;;;2.67;;
74974;SDS011;68459;50.836;19.138;2023-12-20T15:17:11;8.07;;;2.85;;
74974;SDS011;68459;50.836;19.138;2023-12-20T15:20:16;5.77;;;3.03;;
74974;SDS011;68459;50.836;19.138;2023-12-20T15:23:20;7.20;;;3.40;;
74974;SDS011;68459;50.836;19.138;2023-12-20T15:26:28;6.35;;;3.10;;
74974;SDS011;68459;50.836;19.138;2023-12-20T15:29:32;7.90;;;3.23;;
74974;SDS011;68459;50.836;19.138;2023-12-20T15:32:38;7.32;;;3.10;;
74974;SDS011;68459;50.836;19.138;2023-12-20T15:35:42;5.25;;;2.25;;
74974;SDS011;68459;50.836;19.138;2023-12-20T15:38:46;6.95;;;4.05;;
74974;SDS011;68459;50.836;19.138;2023-12-20T15:41:50;5.47;;;2.92;;
74974;SDS011;68459;50.836;19.138;2023-12-20T15:44:54;9.00;;;3.88;;
74974;SDS011;68459;50.836;19.138;2023-12-20T15:48:00;7.50;;;3.63;;
74974;SDS011;68459;50.836;19.138;2023-12-20T15:51:04;8.70;;;4.07;;
74974;SDS011;68459;50.836;19.138;2023-12-20T15:54:08;6.25;;;3.85;;
74974;SDS011;68459;50.836;19.138;2023-12-20T15:57:12;8.55;;;4.13;;
74974;SDS011;68459;50.836;19.138;2023-12-20T16:00:17;6.03;;;3.30;;
74974;SDS011;68459;50.836;19.138;2023-12-20T16:03:24;7.22;;;3.83;;
74974;SDS011;68459;50.836;19.138;2023-12-20T16:06:29;7.13;;;3.50;;
74974;SDS011;68459;50.836;19.138;2023-12-20T16:09:33;8.50;;;4.15;;
74974;SDS011;68459;50.836;19.138;2023-12-20T16:12:37;7.68;;;4.13;;
74974;SDS011;68459;50.836;19.138;2023-12-20T16:15:42;10.10;;;3.17;;
74974;SDS011;68459;50.836;19.138;2023-12-20T16:18:47;9.90;;;3.63;;
74974;SDS011;68459;50.836;19.138;2023-12-20T16:21:51;5.13;;;2.90;;
74974;SDS011;68459;50.836;19.138;2023-12-20T16:24:56;6.55;;;3.25;;
74974;SDS011;68459;50.836;19.138;2023-12-20T16:28:00;9.20;;;3.95;;
74974;SDS011;68459;50.836;19.138;2023-12-20T16:31:04;6.97;;;3.90;;
74974;SDS011;68459;50.836;19.138;2023-12-20T16:34:10;6.45;;;2.63;;
74974;SDS011;68459;50.836;19.138;2023-12-20T16:37:13;6.00;;;2.60;;
74974;SDS011;68459;50.836;19.138;2023-12-20T16:40:18;4.75;;;1.98;;
74974;SDS011;68459;50.836;19.138;2023-12-20T16:43:26;11.13;;;2.72;;
74974;SDS011;68459;50.836;19.138;2023-12-20T16:46:31;5.28;;;2.53;;
74974;SDS011;68459;50.836;19.138;2023-12-20T16:49:36;7.35;;;3.22;;
74974;SDS011;68459;50.836;19.138;2023-12-20T16:52:40;7.10;;;3.30;;
74974;SDS011;68459;50.836;19.138;2023-12-20T16:55:44;5.60;;;3.45;;
74974;SDS011;68459;50.836;19.138;2023-12-20T16:58:48;5.13;;;2.90;;
74974;SDS011;68459;50.836;19.138;2023-12-20T17:01:53;6.40;;;3.17;;
74974;SDS011;68459;50.836;19.138;2023-12-20T17:04:58;4.82;;;2.45;;
74974;SDS011;68459;50.836;19.138;2023-12-20T17:08:02;7.53;;;2.47;;
74974;SDS011;68459;50.836;19.138;2023-12-20T17:11:07;5.68;;;2.72;;
74974;SDS011;68459;50.836;19.138;2023-12-20T17:14:11;3.38;;;1.58;;
74974;SDS011;68459;50.836;19.138;2023-12-20T17:17:15;7.40;;;3.05;;
74974;SDS011;68459;50.836;19.138;2023-12-20T17:20:20;5.68;;;2.60;;
74974;SDS011;68459;50.836;19.138;2023-12-20T17:23:24;5.83;;;2.93;;
74974;SDS011;68459;50.836;19.138;2023-12-20T17:26:28;7.18;;;3.88;;
74974;SDS011;68459;50.836;19.138;2023-12-20T17:29:32;8.20;;;3.30;;
74974;SDS011;68459;50.836;19.138;2023-12-20T17:32:36;8.80;;;3.40;;
74974;SDS011;68459;50.836;19.138;2023-12-20T17:35:43;6.25;;;3.28;;
74974;SDS011;68459;50.836;19.138;2023-12-20T17:38:49;5.53;;;2.88;;
74974;SDS011;68459;50.836;19.138;2023-12-20T17:41:52;9.40;;;3.45;;
74974;SDS011;68459;50.836;19.138;2023-12-20T17:44:56;6.97;;;3.08;;
74974;SDS011;68459;50.836;19.138;2023-12-20T17:48:00;5.65;;;2.42;;
74974;SDS011;68459;50.836;19.138;2023-12-20T17:51:06;4.50;;;2.30;;
74974;SDS011;68459;50.836;19.138;2023-12-20T17:54:10;5.03;;;2.30;;
74974;SDS011;68459;50.836;19.138;2023-12-20T17:57:14;4.60;;;2.40;;
74974;SDS011;68459;50.836;19.138;2023-12-20T18:00:18;6.90;;;3.10;;
74974;SDS011;68459;50.836;19.138;2023-12-20T18:03:24;10.60;;;2.83;;
74974;SDS011;68459;50.836;19.138;2023-12-20T18:06:30;8.02;;;2.67;;
74974;SDS011;68459;50.836;19.138;2023-12-20T18:09:34;7.03;;;2.50;;
74974;SDS011;68459;50.836;19.138;2023-12-20T18:12:38;10.45;;;3.25;;
74974;SDS011;68459;50.836;19.138;2023-12-20T18:15:42;7.53;;;2.17;;
74974;SDS011;68459;50.836;19.138;2023-12-20T18:18:46;5.22;;;2.35;;